Time;durP1;ratioP1;P1;durP2;ratioP2;P2;SDS_P1;SDS_P2;PMS_P1;PMS_P2;Temp;Humidity;BMP_temperature;BMP_pressure;BME280_temperature;BME280_humidity;BME280_pressure;Samples;Min_cycle;Max_cycle;Signal;HPM_P1;HPM_P2
2021/12/21 00:01:36;;;;;;;7.17;3.07;;;4.80;74.80;;;;;;5113643;27;20737;-76
2021/12/21 00:04:05;;;;;;;6.07;2.90;;;4.80;75.00;;;;;;5112711;27;20190;-76
2021/12/21 00:06:33;;;;;;;6.27;3.37;;;4.80;75.20;;;;;;5112889;27;20192;-77
2021/12/21 00:09:02;;;;;;;8.57;3.47;;;4.80;75.30;;;;;;5099960;27;20189;-76
2021/12/21 00:11:31;;;;;;;5.40;3.00;;;4.70;75.30;;;;;;5113205;27;20216;-77
2021/12/21 00:14:13;;;;;;;6.37;3.47;;;4.70;75.50;;;;;;5104836;27;20194;-76
2021/12/21 00:19:43;;;;;;;6.97;3.17;;;4.70;75.40;;;;;;5113489;27;20271;-76
2021/12/21 00:22:28;;;;;;;5.70;3.00;;;4.70;75.60;;;;;;5095328;27;20196;-76
2021/12/21 00:24:56;;;;;;;8.53;3.40;;;4.70;75.80;;;;;;5115939;27;20457;-76
2021/12/21 00:27:25;;;;;;;6.13;3.40;;;4.70;75.30;;;;;;5105920;27;20214;-76
2021/12/21 00:29:53;;;;;;;6.80;2.90;;;4.70;75.40;;;;;;5103017;27;20193;-77
2021/12/21 00:32:23;;;;;;;5.77;3.27;;;4.70;75.30;;;;;;5117623;27;20221;-77
2021/12/21 00:34:51;;;;;;;6.33;3.03;;;4.70;75.50;;;;;;5115704;27;20705;-77
2021/12/21 00:37:22;;;;;;;6.87;3.17;;;4.70;75.40;;;;;;5101531;27;20281;-77
2021/12/21 00:39:50;;;;;;;6.03;3.30;;;4.70;75.60;;;;;;5103581;27;20192;-77
2021/12/21 00:42:19;;;;;;;8.87;4.10;;;4.70;75.20;;;;;;5106852;27;20195;-77
2021/12/21 00:44:47;;;;;;;9.87;2.97;;;4.70;75.20;;;;;;5105443;27;20215;-77
2021/12/21 00:47:16;;;;;;;6.60;2.80;;;4.80;75.50;;;;;;5105606;27;20188;-77
2021/12/21 00:49:48;;;;;;;7.13;3.23;;;4.80;75.30;;;;;;5108615;27;20642;-77
2021/12/21 00:52:16;;;;;;;5.27;2.60;;;4.90;75.70;;;;;;5116010;27;20215;-76
2021/12/21 00:54:45;;;;;;;9.13;3.10;;;4.90;75.30;;;;;;5107934;27;20192;-76
2021/12/21 00:57:13;;;;;;;5.17;3.20;;;4.90;74.60;;;;;;5105134;27;20805;-77
2021/12/21 00:59:41;;;;;;;6.07;3.03;;;4.80;74.40;;;;;;5104939;27;20197;-77
2021/12/21 01:02:10;;;;;;;6.03;3.30;;;4.80;74.10;;;;;;5102806;27;20197;-77
2021/12/21 01:04:42;;;;;;;4.97;3.07;;;4.80;74.40;;;;;;5113015;27;20193;-76
2021/12/21 01:07:20;;;;;;;5.97;3.13;;;4.80;74.60;;;;;;5104080;27;20197;-77
2021/12/21 01:10:14;;;;;;;6.97;2.97;;;4.70;74.50;;;;;;5104571;27;20197;-78
2021/12/21 01:12:51;;;;;;;5.53;2.87;;;4.70;74.70;;;;;;5106429;27;20628;-76
2021/12/21 01:15:34;;;;;;;5.10;2.50;;;4.70;74.70;;;;;;5102641;28;20245;-77
2021/12/21 01:18:08;;;;;;;6.30;3.00;;;4.60;74.50;;;;;;5114144;27;20198;-76
2021/12/21 01:20:41;;;;;;;6.10;3.27;;;4.70;74.60;;;;;;5109449;27;20439;-77
2021/12/21 01:26:02;;;;;;;4.37;2.70;;;4.60;75.20;;;;;;5108220;27;20201;-77
2021/12/21 01:28:39;;;;;;;7.00;3.33;;;4.70;75.20;;;;;;5101241;27;20196;-77
2021/12/21 01:31:20;;;;;;;8.37;3.40;;;4.70;75.00;;;;;;5102154;27;20192;-77
2021/12/21 01:34:01;;;;;;;4.80;2.60;;;4.60;74.80;;;;;;5108750;27;20215;-77
2021/12/21 01:36:36;;;;;;;7.03;3.00;;;4.60;74.80;;;;;;5105506;27;20198;-76
2021/12/21 01:39:14;;;;;;;5.57;3.00;;;4.60;74.90;;;;;;5108803;27;20176;-77
2021/12/21 01:41:51;;;;;;;5.83;3.07;;;4.60;75.00;;;;;;5098858;27;20204;-77
2021/12/21 01:44:25;;;;;;;9.90;3.13;;;4.60;75.00;;;;;;5102702;27;20234;-77
2021/12/21 01:49:42;;;;;;;8.73;3.70;;;4.60;74.80;;;;;;5121329;27;20863;-77
2021/12/21 01:52:15;;;;;;;6.30;3.33;;;4.60;74.80;;;;;;5121587;27;20204;-78
2021/12/21 01:54:46;;;;;;;6.10;3.13;;;4.60;75.00;;;;;;5122462;27;20199;-77
2021/12/21 01:57:14;;;;;;;4.97;2.97;;;4.60;74.90;;;;;;5117768;27;20188;-77
2021/12/21 01:59:44;;;;;;;5.93;3.07;;;4.60;74.70;;;;;;5118743;27;20195;-77
2021/12/21 02:02:16;;;;;;;4.87;2.87;;;4.60;74.90;;;;;;5121351;27;20232;-77
2021/12/21 02:04:44;;;;;;;6.03;3.30;;;4.60;75.00;;;;;;5122320;27;20194;-78
2021/12/21 02:07:13;;;;;;;4.97;2.73;;;4.50;74.70;;;;;;5119391;27;20199;-78
2021/12/21 02:09:42;;;;;;;5.77;2.97;;;4.60;75.10;;;;;;5122659;27;20196;-77
2021/12/21 02:12:15;;;;;;;7.10;3.20;;;4.60;75.10;;;;;;5121918;27;20203;-77
2021/12/21 02:14:48;;;;;;;5.97;2.83;;;4.60;75.10;;;;;;5122379;27;20192;-78
2021/12/21 02:17:40;;;;;;;5.47;2.70;;;4.60;75.10;;;;;;5121367;27;20218;-78
2021/12/21 02:20:19;;;;;;;5.60;2.73;;;4.60;75.10;;;;;;5118906;27;20670;-77
2021/12/21 02:22:54;;;;;;;8.40;2.93;;;4.60;75.20;;;;;;5110813;27;20881;-77
2021/12/21 02:30:52;;;;;;;5.93;2.80;;;4.60;75.10;;;;;;5114317;27;20187;-77
2021/12/21 02:33:23;;;;;;;5.27;2.70;;;4.60;75.20;;;;;;5125959;27;20210;-79
2021/12/21 02:35:53;;;;;;;5.03;2.80;;;4.60;75.30;;;;;;5123019;27;20196;-77
2021/12/21 02:38:22;;;;;;;6.77;2.77;;;4.70;75.20;;;;;;5127169;27;20915;-78
2021/12/21 02:40:51;;;;;;;6.30;2.73;;;4.60;74.80;;;;;;5125884;27;20200;-77
2021/12/21 02:43:19;;;;;;;5.47;2.80;;;4.60;74.80;;;;;;5123934;27;20199;-77
2021/12/21 02:45:47;;;;;;;6.10;3.50;;;4.60;74.80;;;;;;5125025;27;20716;-78
2021/12/21 02:48:16;;;;;;;4.27;2.30;;;4.60;74.90;;;;;;5123904;27;20199;-78
2021/12/21 02:50:44;;;;;;;4.50;2.70;;;4.60;74.90;;;;;;5122740;27;20194;-78
2021/12/21 02:53:14;;;;;;;4.87;2.60;;;4.60;75.10;;;;;;5125082;27;20212;-78
2021/12/21 02:55:42;;;;;;;5.53;2.97;;;4.60;75.20;;;;;;5124052;27;20187;-78
2021/12/21 02:58:11;;;;;;;5.13;2.83;;;4.60;75.10;;;;;;5121357;27;20199;-78
2021/12/21 03:00:39;;;;;;;4.60;2.80;;;4.60;75.10;;;;;;5125066;27;20203;-78
2021/12/21 03:03:13;;;;;;;5.73;3.00;;;4.60;75.10;;;;;;5122170;27;20181;-78
2021/12/21 03:05:49;;;;;;;6.77;3.20;;;4.60;75.00;;;;;;5124503;27;20187;-77
2021/12/21 03:08:22;;;;;;;5.00;2.97;;;4.60;75.00;;;;;;5124230;27;20184;-78
2021/12/21 03:11:07;;;;;;;5.73;2.83;;;4.50;74.80;;;;;;5124795;27;20202;-77
2021/12/21 03:16:22;;;;;;;4.43;2.50;;;4.60;75.30;;;;;;5124582;27;20295;-78
2021/12/21 03:18:52;;;;;;;6.90;3.10;;;4.60;75.20;;;;;;5122591;27;20683;-78
2021/12/21 03:21:21;;;;;;;6.33;3.43;;;4.60;75.10;;;;;;5125316;27;20196;-78
2021/12/21 03:23:50;;;;;;;5.07;3.10;;;4.60;75.30;;;;;;5123865;27;20230;-78
2021/12/21 03:26:19;;;;;;;7.80;3.20;;;4.60;75.30;;;;;;5123689;27;20195;-77
2021/12/21 03:28:47;;;;;;;6.07;2.70;;;4.70;75.40;;;;;;5124081;27;21124;-77
2021/12/21 03:31:15;;;;;;;6.33;3.20;;;4.70;75.40;;;;;;5125781;27;20199;-78
2021/12/21 03:33:44;;;;;;;7.40;3.17;;;4.70;75.40;;;;;;5122543;27;20218;-78
2021/12/21 03:36:13;;;;;;;5.20;2.73;;;4.70;76.10;;;;;;5115593;27;20191;-78
2021/12/21 03:38:48;;;;;;;4.40;2.63;;;4.70;75.10;;;;;;5122271;27;20190;-78
2021/12/21 03:41:18;;;;;;;5.33;3.00;;;4.70;75.10;;;;;;5123999;27;20186;-78
2021/12/21 03:43:47;;;;;;;5.53;2.93;;;4.70;75.10;;;;;;5124067;27;20188;-78
2021/12/21 03:46:16;;;;;;;5.60;3.27;;;4.60;74.80;;;;;;5124265;27;20813;-77
2021/12/21 03:48:46;;;;;;;6.03;2.97;;;4.60;75.00;;;;;;5122751;27;20185;-78
2021/12/21 03:51:17;;;;;;;5.07;2.70;;;4.60;75.10;;;;;;5123054;27;20191;-78
2021/12/21 03:53:46;;;;;;;4.83;2.93;;;4.60;75.10;;;;;;5122583;27;20205;-77
2021/12/21 03:56:36;;;;;;;6.10;3.40;;;4.60;75.10;;;;;;5116268;27;20200;-77
2021/12/21 03:59:07;;;;;;;6.10;3.37;;;4.60;75.10;;;;;;5124564;27;20192;-78
2021/12/21 04:01:35;;;;;;;6.60;3.07;;;4.60;75.10;;;;;;5122993;27;20560;-78
2021/12/21 04:04:04;;;;;;;5.10;2.90;;;4.60;75.00;;;;;;5120456;27;20204;-77
2021/12/21 04:06:33;;;;;;;7.43;3.57;;;4.60;75.00;;;;;;5117944;27;20195;-78
2021/12/21 04:09:02;;;;;;;6.47;3.73;;;4.60;75.10;;;;;;5124028;27;20190;-78
2021/12/21 04:11:31;;;;;;;8.07;4.00;;;4.60;75.00;;;;;;5124116;27;20187;-78
2021/12/21 04:14:00;;;;;;;6.53;3.80;;;4.60;74.90;;;;;;5123528;27;20222;-78
2021/12/21 04:16:30;;;;;;;7.43;4.03;;;4.60;74.80;;;;;;5124145;27;20191;-79
2021/12/21 04:18:59;;;;;;;8.87;3.90;;;4.60;74.90;;;;;;5115386;27;20187;-78
2021/12/21 04:21:28;;;;;;;10.50;4.90;;;4.60;74.90;;;;;;5120393;27;20252;-77
2021/12/21 04:23:56;;;;;;;9.87;5.07;;;4.60;74.50;;;;;;5122991;27;20195;-78
2021/12/21 04:26:25;;;;;;;9.47;5.47;;;4.50;74.40;;;;;;5122974;27;20313;-78
2021/12/21 04:28:53;;;;;;;10.27;5.40;;;4.50;74.30;;;;;;5121198;27;20209;-78
2021/12/21 04:31:21;;;;;;;8.37;4.83;;;4.50;74.60;;;;;;5122951;27;20199;-77
2021/12/21 04:33:51;;;;;;;9.23;4.93;;;4.50;74.70;;;;;;5124204;27;20223;-77
2021/12/21 04:36:20;;;;;;;9.57;5.07;;;4.50;74.80;;;;;;5122978;27;20196;-78
2021/12/21 04:38:50;;;;;;;10.00;4.87;;;4.50;74.90;;;;;;5122879;27;20195;-78
2021/12/21 04:41:23;;;;;;;10.40;4.50;;;4.50;74.90;;;;;;5123942;27;20186;-77
2021/12/21 04:43:53;;;;;;;11.50;4.90;;;4.50;74.70;;;;;;5118897;27;20184;-78
2021/12/21 04:46:22;;;;;;;9.97;4.77;;;4.50;74.70;;;;;;5123321;27;20814;-78
2021/12/21 04:48:53;;;;;;;6.73;4.03;;;4.50;74.60;;;;;;5123515;27;20188;-77
2021/12/21 04:51:21;;;;;;;12.40;3.63;;;4.50;74.40;;;;;;5121109;27;20190;-78
2021/12/21 04:53:50;;;;;;;9.03;4.33;;;4.40;74.10;;;;;;5124446;27;20733;-78
2021/12/21 04:56:18;;;;;;;7.13;4.00;;;4.40;74.20;;;;;;5117378;27;20230;-78
2021/12/21 04:58:47;;;;;;;5.50;3.77;;;4.40;74.40;;;;;;5120632;27;20187;-79
2021/12/21 05:01:15;;;;;;;9.10;4.23;;;4.50;74.70;;;;;;5119078;27;20679;-78
2021/12/21 05:03:43;;;;;;;7.87;4.70;;;4.50;74.90;;;;;;5124154;27;20196;-79
2021/12/21 05:06:15;;;;;;;9.97;5.07;;;4.50;74.40;;;;;;5120216;27;20196;-78
2021/12/21 05:08:52;;;;;;;9.67;4.97;;;4.50;74.10;;;;;;5122481;27;20684;-78
2021/12/21 05:11:21;;;;;;;9.40;4.60;;;4.50;74.10;;;;;;5122893;27;20180;-78
2021/12/21 05:13:49;;;;;;;10.00;4.20;;;4.50;74.10;;;;;;5121304;27;20245;-79
2021/12/21 05:16:18;;;;;;;6.80;4.17;;;4.50;74.30;;;;;;5123156;27;20192;-78
2021/12/21 05:18:46;;;;;;;11.87;4.30;;;4.50;74.30;;;;;;5123071;27;20195;-78
2021/12/21 05:21:16;;;;;;;9.83;4.07;;;4.50;74.40;;;;;;5121132;27;20275;-78
2021/12/21 05:23:44;;;;;;;6.70;4.33;;;4.40;74.30;;;;;;5121201;27;20190;-78
2021/12/21 05:26:12;;;;;;;8.67;4.17;;;4.40;74.30;;;;;;5122589;27;20203;-78
2021/12/21 05:28:41;;;;;;;7.03;4.00;;;4.40;74.50;;;;;;5123194;27;20280;-78
2021/12/21 05:31:09;;;;;;;8.20;4.23;;;4.40;74.60;;;;;;5121111;27;20191;-78
2021/12/21 05:33:37;;;;;;;9.93;5.33;;;4.40;74.60;;;;;;5122233;27;20198;-78
2021/12/21 05:36:06;;;;;;;9.10;6.37;;;4.40;74.70;;;;;;5121576;27;20191;-78
2021/12/21 05:38:36;;;;;;;10.43;6.37;;;4.40;74.80;;;;;;5122144;27;20196;-78
2021/12/21 05:41:11;;;;;;;15.80;7.20;;;4.40;74.70;;;;;;5122973;27;20223;-79
2021/12/21 05:43:41;;;;;;;8.37;5.27;;;4.40;74.80;;;;;;5122587;27;20244;-79
2021/12/21 05:46:09;;;;;;;12.77;6.10;;;4.40;74.90;;;;;;5122576;27;20194;-78
2021/12/21 05:48:37;;;;;;;7.70;4.77;;;4.40;74.90;;;;;;5119725;27;20191;-79
2021/12/21 05:51:06;;;;;;;7.43;3.90;;;4.40;75.00;;;;;;5122262;27;20673;-79
2021/12/21 05:53:35;;;;;;;11.23;4.90;;;4.40;74.80;;;;;;5118880;27;20203;-79
2021/12/21 05:56:04;;;;;;;5.83;3.63;;;4.40;74.60;;;;;;5129310;27;20221;-78
2021/12/21 05:58:32;;;;;;;9.03;4.37;;;4.50;74.80;;;;;;5123218;27;20624;-78
2021/12/21 06:01:02;;;;;;;8.33;4.00;;;4.50;74.80;;;;;;5118540;27;20310;-78
2021/12/21 06:03:30;;;;;;;7.17;3.77;;;4.50;74.80;;;;;;5121401;27;20733;-78
2021/12/21 06:05:59;;;;;;;8.43;3.93;;;4.50;74.70;;;;;;5116103;27;20277;-79
2021/12/21 06:08:27;;;;;;;8.07;4.20;;;4.60;74.70;;;;;;5129067;27;20675;-78
2021/12/21 06:10:57;;;;;;;6.30;3.73;;;4.50;74.50;;;;;;5119001;27;20192;-78
2021/12/21 06:13:49;;;;;;;8.13;4.30;;;4.50;74.50;;;;;;5119523;28;20203;-79
2021/12/21 06:16:28;;;;;;;11.77;5.67;;;4.50;74.50;;;;;;5120826;27;20824;-78
2021/12/21 06:27:22;;;;;;;7.73;4.80;;;4.50;74.90;;;;;;5135017;27;20194;-78
2021/12/21 06:29:50;;;;;;;9.30;5.50;;;4.40;74.60;;;;;;5121021;28;20175;-78
2021/12/21 06:32:19;;;;;;;12.57;5.27;;;4.40;74.60;;;;;;5122975;27;20875;-78
2021/12/21 06:34:48;;;;;;;10.67;5.47;;;4.30;74.70;;;;;;5121752;27;20228;-77
2021/12/21 06:37:17;;;;;;;12.77;5.67;;;4.30;74.90;;;;;;5122713;28;20194;-78
2021/12/21 06:39:45;;;;;;;14.17;6.20;;;4.30;74.90;;;;;;5119669;27;20188;-77
2021/12/21 06:42:15;;;;;;;13.93;5.77;;;4.30;75.10;;;;;;5121420;27;20412;-77
2021/12/21 06:44:53;;;;;;;12.03;5.63;;;4.30;75.20;;;;;;5123237;27;20219;-77
2021/12/21 06:52:55;;;;;;;10.53;5.73;;;4.40;75.80;;;;;;5122660;27;20192;-78
2021/12/21 06:55:23;;;;;;;9.53;5.33;;;4.40;75.80;;;;;;5126283;27;20231;-78
2021/12/21 06:57:51;;;;;;;18.67;4.97;;;4.40;75.80;;;;;;5123649;27;20718;-78
2021/12/21 07:00:21;;;;;;;15.93;9.37;;;4.40;75.60;;;;;;5120049;27;20894;-77
2021/12/21 07:02:50;;;;;;;15.27;7.60;;;4.50;75.50;;;;;;5118850;27;20204;-77
2021/12/21 07:05:19;;;;;;;11.53;6.73;;;4.50;75.60;;;;;;5117929;28;20577;-77
2021/12/21 07:07:49;;;;;;;14.53;7.17;;;4.60;75.50;;;;;;5123456;28;21973;-79
2021/12/21 07:10:23;;;;;;;11.47;6.57;;;4.60;75.50;;;;;;5123658;28;20185;-78
2021/12/21 07:18:29;;;;;;;10.33;6.07;;;4.80;76.00;;;;;;5125804;27;20199;-76
2021/12/21 07:21:01;;;;;;;10.60;5.67;;;4.90;76.10;;;;;;5126199;27;20188;-77
2021/12/21 07:23:31;;;;;;;10.57;5.67;;;5.00;76.10;;;;;;5127420;27;20190;-77
2021/12/21 07:25:59;;;;;;;12.33;5.67;;;5.00;76.20;;;;;;5126911;27;20213;-77
2021/12/21 07:28:27;;;;;;;9.53;5.73;;;5.10;76.30;;;;;;5126489;27;20192;-77
2021/12/21 07:30:57;;;;;;;11.67;5.73;;;5.10;76.30;;;;;;5124543;27;20192;-77
2021/12/21 07:33:27;;;;;;;14.20;7.90;;;5.20;76.30;;;;;;5121312;27;20427;-77
2021/12/21 07:35:55;;;;;;;13.07;7.20;;;5.20;76.30;;;;;;5126022;27;20524;-77
2021/12/21 07:38:25;;;;;;;15.37;6.53;;;5.20;76.20;;;;;;5126680;27;20223;-76
2021/12/21 07:40:54;;;;;;;12.53;6.20;;;5.20;76.30;;;;;;5127394;27;20188;-77
2021/12/21 07:43:22;;;;;;;13.17;6.20;;;5.30;76.10;;;;;;5126947;27;20185;-76
2021/12/21 07:45:50;;;;;;;12.07;6.90;;;5.30;75.80;;;;;;5126796;27;20247;-77
2021/12/21 07:48:21;;;;;;;14.20;6.10;;;5.20;76.10;;;;;;5127534;27;20197;-77
2021/12/21 07:50:51;;;;;;;10.27;5.57;;;5.30;76.10;;;;;;5128489;27;20871;-77
2021/12/21 07:53:21;;;;;;;9.13;5.30;;;5.30;76.40;;;;;;5128117;27;20191;-76
2021/12/21 07:55:49;;;;;;;10.77;5.37;;;5.20;76.20;;;;;;5119486;27;20212;-76
2021/12/21 07:58:18;;;;;;;8.03;4.30;;;5.30;76.40;;;;;;5126883;27;20719;-76
2021/12/21 08:00:46;;;;;;;5.23;3.27;;;5.30;76.40;;;;;;5126094;27;20199;-76
2021/12/21 08:03:16;;;;;;;5.13;3.40;;;5.20;76.10;;;;;;5114879;27;20701;-76
2021/12/21 08:05:50;;;;;;;5.87;3.33;;;5.20;75.80;;;;;;5124865;27;20199;-76
2021/12/21 08:08:21;;;;;;;6.27;3.43;;;5.20;75.60;;;;;;5124386;27;20195;-77
2021/12/21 08:10:53;;;;;;;7.93;3.57;;;5.10;75.80;;;;;;5127124;27;20207;-76
2021/12/21 08:13:22;;;;;;;8.47;3.87;;;5.10;76.30;;;;;;5107917;28;20182;-77
2021/12/21 08:15:50;;;;;;;6.53;3.57;;;5.10;76.40;;;;;;5124231;27;20223;-75
2021/12/21 08:18:19;;;;;;;7.60;4.07;;;5.20;76.60;;;;;;5112613;27;20187;-77
2021/12/21 08:20:49;;;;;;;5.10;3.70;;;5.10;76.20;;;;;;5125432;27;20184;-77
2021/12/21 08:23:17;;;;;;;5.80;3.37;;;5.10;76.00;;;;;;5127206;27;20295;-76
2021/12/21 08:25:45;;;;;;;6.10;3.77;;;5.10;75.90;;;;;;5126495;27;20221;-77
2021/12/21 08:28:14;;;;;;;5.70;4.10;;;5.10;75.80;;;;;;5144688;27;20204;-78
2021/12/21 08:30:42;;;;;;;7.50;3.90;;;5.10;75.80;;;;;;5124409;27;20241;-77
2021/12/21 08:33:11;;;;;;;5.40;3.30;;;5.10;75.50;;;;;;5125094;27;20196;-76
2021/12/21 08:35:40;;;;;;;7.17;4.40;;;5.10;75.40;;;;;;5127477;27;20216;-76
2021/12/21 08:38:14;;;;;;;7.23;4.37;;;5.10;75.50;;;;;;5126345;27;20660;-77
2021/12/21 08:40:43;;;;;;;6.20;3.80;;;5.10;75.60;;;;;;5123642;27;20203;-75
2021/12/21 08:43:14;;;;;;;7.37;3.93;;;5.10;75.50;;;;;;5113596;27;20244;-76
2021/12/21 08:45:45;;;;;;;6.00;3.37;;;5.10;75.50;;;;;;5126455;27;20222;-77
2021/12/21 08:48:16;;;;;;;7.07;4.07;;;5.10;75.40;;;;;;5124744;27;20638;-77
2021/12/21 08:50:46;;;;;;;7.67;4.17;;;5.00;76.00;;;;;;5122778;27;20201;-77
2021/12/21 08:53:16;;;;;;;8.13;4.27;;;5.10;75.90;;;;;;5125073;27;20820;-77
2021/12/21 08:55:45;;;;;;;10.87;5.20;;;5.10;76.00;;;;;;5120057;27;20201;-77
2021/12/21 08:58:14;;;;;;;6.70;4.20;;;5.20;76.20;;;;;;5124551;27;20192;-76
2021/12/21 09:00:43;;;;;;;9.37;3.60;;;5.20;76.10;;;;;;5124208;27;20184;-77
2021/12/21 09:03:13;;;;;;;5.90;3.30;;;5.20;75.70;;;;;;5122598;27;20216;-77
2021/12/21 09:05:42;;;;;;;4.60;2.93;;;5.20;75.20;;;;;;5124656;27;20188;-76
2021/12/21 09:08:11;;;;;;;5.53;2.73;;;5.20;74.70;;;;;;5125174;27;20216;-76
2021/12/21 09:10:41;;;;;;;3.63;2.50;;;5.10;73.50;;;;;;5123844;27;20180;-76
2021/12/21 09:13:10;;;;;;;3.67;2.20;;;5.10;72.90;;;;;;5123565;27;20652;-76
2021/12/21 09:15:44;;;;;;;5.97;3.20;;;5.00;72.50;;;;;;5123779;27;20183;-76
2021/12/21 09:18:13;;;;;;;7.23;3.27;;;5.10;72.60;;;;;;5123525;27;20729;-76
2021/12/21 09:20:41;;;;;;;4.17;2.90;;;5.00;72.60;;;;;;5118044;27;20192;-77
2021/12/21 09:23:09;;;;;;;5.93;3.37;;;5.00;73.20;;;;;;5124119;27;20188;-77
2021/12/21 09:25:38;;;;;;;7.87;3.40;;;5.10;73.40;;;;;;5124960;27;20184;-76
2021/12/21 09:28:08;;;;;;;5.80;3.10;;;5.10;73.20;;;;;;5130796;27;20595;-76
2021/12/21 09:30:36;;;;;;;6.97;2.87;;;5.20;73.20;;;;;;5124238;27;20897;-76
2021/12/21 09:33:11;;;;;;;4.17;2.50;;;5.30;73.00;;;;;;5124584;27;20203;-76
2021/12/21 09:35:41;;;;;;;7.50;2.93;;;5.30;72.80;;;;;;5108616;27;20188;-76
2021/12/21 09:38:09;;;;;;;4.10;2.43;;;5.40;72.50;;;;;;5112036;27;20204;-77
2021/12/21 09:40:39;;;;;;;6.87;2.90;;;5.50;72.60;;;;;;5117434;27;20188;-76
2021/12/21 09:43:10;;;;;;;6.57;3.73;;;5.50;72.10;;;;;;5124579;27;20195;-76
2021/12/21 09:45:40;;;;;;;4.43;2.90;;;5.60;71.90;;;;;;5123893;27;20217;-77
2021/12/21 09:48:08;;;;;;;4.13;2.40;;;5.60;71.30;;;;;;5123928;27;20201;-76
2021/12/21 09:50:37;;;;;;;4.67;2.63;;;5.60;70.80;;;;;;5124936;27;20196;-76
2021/12/21 09:53:06;;;;;;;7.40;2.53;;;5.60;69.80;;;;;;5120324;27;20184;-76
2021/12/21 09:55:34;;;;;;;5.47;2.40;;;5.60;69.60;;;;;;5131833;27;20187;-75
2021/12/21 09:58:03;;;;;;;4.93;2.33;;;5.60;69.30;;;;;;5126948;27;20661;-76
2021/12/21 10:00:34;;;;;;;3.73;2.57;;;5.70;68.70;;;;;;5123280;27;20195;-76
2021/12/21 10:03:04;;;;;;;4.27;2.60;;;5.70;69.10;;;;;;5117115;27;20169;-75
2021/12/21 10:05:36;;;;;;;4.87;2.47;;;5.70;68.00;;;;;;5122376;27;20185;-76
2021/12/21 10:08:08;;;;;;;4.90;2.60;;;5.70;66.60;;;;;;5123092;27;20653;-76
2021/12/21 10:10:39;;;;;;;4.77;2.63;;;5.80;67.00;;;;;;5120920;27;20188;-75
2021/12/21 10:13:12;;;;;;;5.03;3.00;;;5.80;67.70;;;;;;5123500;27;20554;-75
2021/12/21 10:15:46;;;;;;;8.60;2.77;;;5.90;67.70;;;;;;5125272;27;20211;-75
2021/12/21 10:18:15;;;;;;;5.07;2.90;;;5.90;67.80;;;;;;5117065;27;20216;-75
2021/12/21 10:20:46;;;;;;;4.43;2.67;;;5.90;66.30;;;;;;5120630;27;20181;-75
2021/12/21 10:23:16;;;;;;;4.87;2.20;;;5.90;66.00;;;;;;5121708;27;20197;-76
2021/12/21 10:25:48;;;;;;;4.43;2.87;;;6.00;66.60;;;;;;5123437;28;20837;-75
2021/12/21 10:28:31;;;;;;;4.87;2.67;;;6.10;67.30;;;;;;5121056;27;20188;-75
2021/12/21 10:31:03;;;;;;;5.87;2.90;;;6.20;66.90;;;;;;5103851;28;20194;-75
2021/12/21 10:33:32;;;;;;;4.87;2.40;;;6.20;66.40;;;;;;5110999;28;20191;-76
2021/12/21 10:36:03;;;;;;;4.90;2.67;;;6.20;66.60;;;;;;5123575;27;20193;-75
2021/12/21 10:38:34;;;;;;;7.00;2.67;;;6.20;66.80;;;;;;5122414;27;20211;-76
2021/12/21 10:41:10;;;;;;;4.10;2.40;;;6.20;65.60;;;;;;5114896;27;20749;-76
2021/12/21 10:43:40;;;;;;;4.63;3.17;;;6.20;65.30;;;;;;5123327;27;20199;-76
2021/12/21 10:46:11;;;;;;;7.10;3.43;;;6.30;65.90;;;;;;5123606;28;20662;-76
2021/12/21 10:48:47;;;;;;;5.27;3.00;;;6.30;66.20;;;;;;5119482;27;20187;-76
2021/12/21 10:51:16;;;;;;;11.57;3.43;;;6.40;66.00;;;;;;5122808;27;20173;-75
2021/12/21 10:53:49;;;;;;;6.67;3.60;;;6.30;65.70;;;;;;5126266;27;20887;-75
2021/12/21 10:56:19;;;;;;;7.27;3.27;;;6.30;65.90;;;;;;5127098;27;20181;-75
2021/12/21 10:58:49;;;;;;;3.97;2.60;;;6.30;65.80;;;;;;5127002;27;20324;-75
2021/12/21 11:01:44;;;;;;;5.63;3.10;;;6.30;65.80;;;;;;5111914;27;20192;-75
2021/12/21 11:04:16;;;;;;;8.10;3.13;;;6.30;65.30;;;;;;5125022;27;20176;-75
2021/12/21 11:06:49;;;;;;;6.73;2.53;;;6.20;65.10;;;;;;5125752;27;20569;-75
2021/12/21 11:09:17;;;;;;;6.20;3.00;;;6.30;64.10;;;;;;5125295;27;20809;-75
2021/12/21 11:11:49;;;;;;;8.30;3.60;;;6.30;64.90;;;;;;5126896;27;20200;-76
2021/12/21 11:14:19;;;;;;;8.00;3.67;;;6.30;65.10;;;;;;5125789;27;20192;-75
2021/12/21 11:16:52;;;;;;;7.87;3.80;;;6.40;65.10;;;;;;5124846;27;20242;-75
2021/12/21 11:19:23;;;;;;;5.97;3.83;;;6.40;65.20;;;;;;5126993;27;20180;-75
2021/12/21 11:21:56;;;;;;;7.07;3.47;;;6.40;65.50;;;;;;5126719;27;20248;-75
2021/12/21 11:24:26;;;;;;;5.93;3.23;;;6.50;66.00;;;;;;5124436;27;20212;-76
2021/12/21 11:26:56;;;;;;;7.13;3.90;;;6.50;64.10;;;;;;5125353;27;20629;-76
2021/12/21 11:29:26;;;;;;;5.60;3.07;;;6.50;64.70;;;;;;5127221;27;20185;-76
2021/12/21 11:31:58;;;;;;;6.80;3.50;;;6.60;64.50;;;;;;5126731;27;20177;-74
2021/12/21 11:34:36;;;;;;;6.20;3.47;;;6.60;64.40;;;;;;5129263;27;20181;-73
2021/12/21 11:37:25;;;;;;;6.13;3.60;;;6.60;64.50;;;;;;5133541;27;20187;-74
2021/12/21 11:39:54;;;;;;;9.07;3.30;;;6.60;63.50;;;;;;5145322;27;20436;-74
2021/12/21 11:42:31;;;;;;;7.17;3.53;;;6.60;63.00;;;;;;5129195;27;20193;-74
2021/12/21 11:45:07;;;;;;;5.00;2.80;;;6.60;63.00;;;;;;5125132;27;20223;-74
2021/12/21 11:47:41;;;;;;;11.77;3.03;;;6.60;63.00;;;;;;5129224;27;20203;-74
2021/12/21 11:50:11;;;;;;;5.03;2.80;;;6.60;63.40;;;;;;5128437;27;20197;-74
2021/12/21 11:52:45;;;;;;;7.53;2.93;;;6.70;63.50;;;;;;5127909;27;20200;-73
2021/12/21 11:55:15;;;;;;;10.53;2.93;;;6.70;62.60;;;;;;5126133;27;20190;-73
2021/12/21 11:57:45;;;;;;;7.23;3.00;;;6.70;62.70;;;;;;5126323;27;20214;-74
2021/12/21 12:00:16;;;;;;;5.10;2.90;;;6.70;62.60;;;;;;5126858;27;20184;-74
2021/12/21 12:02:48;;;;;;;4.57;2.50;;;6.70;62.80;;;;;;5125710;27;20217;-75
2021/12/21 12:05:20;;;;;;;5.07;2.95;;;6.70;62.10;;;;;;5125077;27;20411;-75
2021/12/21 12:08:03;;;;;;;5.97;2.90;;;6.70;62.10;;;;;;5125706;27;20197;-74
2021/12/21 12:10:32;;;;;;;8.20;2.83;;;6.60;61.60;;;;;;5124616;27;20550;-74
2021/12/21 12:13:12;;;;;;;6.53;2.80;;;6.70;61.80;;;;;;5119840;27;20185;-75
2021/12/21 12:15:45;;;;;;;8.33;2.80;;;6.70;61.10;;;;;;5124970;27;20183;-73
2021/12/21 12:18:24;;;;;;;10.17;3.00;;;6.70;60.80;;;;;;5128331;27;20211;-73
2021/12/21 12:20:52;;;;;;;4.97;2.67;;;6.70;60.50;;;;;;5127732;27;20240;-74
2021/12/21 12:23:21;;;;;;;7.57;2.83;;;6.60;60.10;;;;;;5126608;27;20189;-75
2021/12/21 12:25:54;;;;;;;6.57;2.83;;;6.60;60.50;;;;;;5126399;27;20427;-74
2021/12/21 12:28:25;;;;;;;4.20;2.63;;;6.60;61.20;;;;;;5126849;27;20198;-75
2021/12/21 12:30:55;;;;;;;5.03;2.87;;;6.60;61.30;;;;;;5128041;27;20189;-75
2021/12/21 12:33:24;;;;;;;9.10;2.73;;;6.70;61.20;;;;;;5127190;27;20198;-75
2021/12/21 12:36:02;;;;;;;8.73;3.37;;;6.80;61.10;;;;;;5126115;27;20198;-74
2021/12/21 12:38:31;;;;;;;5.10;2.90;;;6.80;60.20;;;;;;5118363;27;20871;-75
2021/12/21 12:41:12;;;;;;;5.10;2.53;;;6.90;60.30;;;;;;5122401;27;20221;-75
2021/12/21 12:43:44;;;;;;;4.77;2.63;;;6.90;60.40;;;;;;5119585;27;20195;-75
2021/12/21 12:46:23;;;;;;;5.97;2.50;;;7.00;59.90;;;;;;5122072;27;20363;-78
2021/12/21 12:48:53;;;;;;;6.37;2.83;;;7.00;60.50;;;;;;5122353;27;20635;-76
2021/12/21 12:51:26;;;;;;;7.43;3.40;;;7.10;60.90;;;;;;5123921;27;20225;-77
2021/12/21 12:53:55;;;;;;;5.60;2.60;;;7.20;61.10;;;;;;5123253;27;20273;-76
2021/12/21 12:56:25;;;;;;;4.17;2.73;;;7.20;60.70;;;;;;5124506;27;20572;-77
2021/12/21 12:58:55;;;;;;;4.40;2.20;;;7.20;61.00;;;;;;5129486;27;20269;-77
2021/12/21 13:01:26;;;;;;;5.87;2.67;;;7.40;62.10;;;;;;5122813;27;20204;-77
2021/12/21 13:03:59;;;;;;;7.07;2.67;;;7.50;61.20;;;;;;5123385;27;20180;-77
2021/12/21 13:06:30;;;;;;;10.10;2.90;;;7.60;61.10;;;;;;5124486;27;20185;-76
2021/12/21 13:08:59;;;;;;;5.20;2.40;;;7.70;59.60;;;;;;5125269;27;20184;-76
2021/12/21 13:11:29;;;;;;;5.03;2.20;;;7.90;60.20;;;;;;5123069;27;20199;-77
2021/12/21 13:13:58;;;;;;;4.57;2.20;;;8.10;61.80;;;;;;5124708;27;20180;-77
2021/12/21 13:16:29;;;;;;;4.60;2.27;;;8.30;61.50;;;;;;5125260;27;20198;-77
2021/12/21 13:19:00;;;;;;;4.80;2.20;;;8.40;59.80;;;;;;5125011;27;20208;-77
2021/12/21 13:21:37;;;;;;;6.03;2.53;;;8.60;59.40;;;;;;5124906;27;20184;-77
2021/12/21 13:24:09;;;;;;;7.13;2.40;;;8.70;59.20;;;;;;5124047;27;20200;-77
2021/12/21 13:26:39;;;;;;;4.27;2.20;;;9.20;57.60;;;;;;5125540;27;20188;-78
2021/12/21 13:29:13;;;;;;;8.07;2.93;;;9.90;56.40;;;;;;5125082;27;20184;-77
2021/12/21 13:31:43;;;;;;;6.03;2.63;;;10.80;55.50;;;;;;5125241;27;20176;-77
2021/12/21 13:34:12;;;;;;;4.40;2.50;;;13.10;53.00;;;;;;5122953;27;20712;-77
2021/12/21 13:36:43;;;;;;;6.87;3.23;;;15.10;48.90;;;;;;5124313;27;20192;-77
2021/12/21 13:39:19;;;;;;;4.83;2.83;;;14.60;48.10;;;;;;5121345;27;20207;-78
2021/12/21 13:41:49;;;;;;;5.50;2.83;;;15.40;46.10;;;;;;5119912;27;20195;-78
2021/12/21 13:44:25;;;;;;;6.20;2.87;;;15.50;46.60;;;;;;5119428;27;20219;-78
2021/12/21 13:46:55;;;;;;;5.13;2.63;;;15.60;46.30;;;;;;5122576;27;20180;-77
2021/12/21 13:49:57;;;;;;;6.07;2.77;;;15.30;47.50;;;;;;5123167;27;20188;-78
2021/12/21 13:52:27;;;;;;;5.50;2.63;;;16.60;47.10;;;;;;5121730;27;20188;-78